Jacksonville, AL (36265)

3:04 AM CST on March 05, 2015 (GMT -0600)
Angel Community | Change Station
CLOSE
Current Station
Personal Weather Station
Location: Jacksonville, AL
Elevation: 629 ft
Nearby Weather Stations
Active Advisory: Freezing Rain Advisory

Elev 629 ft 33.84 °N, 85.83 °W | Updated 14 seconds ago

Overcast
Overcast
47.2 °F
Feels Like 47 °F
N
1.0
Wind Variable Wind from WNW
Gusts 5.0 mph

Today
High -- | Low -- °F
--% Chance of Precip.
Yesterday
High -- | Low -- °F
Precip. -- in
6:06 AM 5:42 PM
Full, 100% visible
Pressure 29.90 in
Visibility 10.0 miles
Clouds Overcast 500 ft
Windchill 47 °F
Dew Point 46 °F
Humidity 94%
Rainfall in
Snow Depth Not available.
UV 0 out of 12
Pollen 8.00 out of 12
Air Quality Not available.
Flu Activity Not available.
METAR KANB 050853Z AUTO 21005KT 10SM OVC005 11/10 A2991 RMK AO2 RAE22 SLP124 P0000 60001 T01110100 51012

More Conditions Fewer Conditions

Pressure 29.90 in
Visibility 10.0 miles
Clouds Overcast 500 ft
Windchill 47 °F
Dew Point 46 °F
Humidity 94%
Rainfall in
Snow Depth Not available.
UV 0 out of 12
Pollen 8.00 out of 12
Air Quality Not available.
Flu Activity Not available.
METAR KANB 050853Z AUTO 21005KT 10SM OVC005 11/10 A2991 RMK AO2 RAE22 SLP124 P0000 60001 T01110100 51012

More Conditions Fewer Conditions

10-Day Weather Forecast

Almanac

Astronomy

Mar. 05, 2015 Rise Set
Actual Time
Civil Twilight
Nautical Twilight
Astronomical Twilight
Moon
Length of Visible Light
Length of Day
Tomorrow will be .
, % of the Moon is Illuminated

Today's Extremes

State Highs State Lows

Community

WunderPhotos

Upload Photos

1,802,704 photos uploaded!

WunderBlogs® & News

Nearby

Air Quality

  Air Quality AQ Index Pollutant
Not available.

Snow Depth

Station Depth Elevation

Earthquake Activity

City Distance Mag. Time & Date
Minimum magnitude displayed is 2.5.

Coastal Water Temperatures

Place Temperature

Nearby Weather Stations

Freezing Rain Advisory
Statement as of 8:39 PM CST on March 04, 2015

... Freezing Rain Advisory remains in effect from 3 am to 3 PM CST
Thursday...

* timing... from 3 am Thursday morning through 3 PM Thursday
afternoon.

* Location... areas along and north of a Livingston... to
Pelham... to Pell City... to Anniston line.

Precautionary/preparedness actions...

A Freezing Rain Advisory means that periods of freezing rain or
freezing drizzle will cause travel difficulties. Be prepared for
slippery roads. Slow down and use caution while driving. Be
prepared for an upgrade to a Winter Storm Warning if needed.